createdAt,value
2018-09-23T00:00:23.848Z,18.72
2018-09-23T00:01:33.917Z,18.74
2018-09-23T00:02:44.005Z,18.69
2018-09-23T00:03:54.139Z,18.71
2018-09-23T00:05:04.226Z,18.74
2018-09-23T00:06:14.303Z,18.75
2018-09-23T00:07:24.116Z,18.75
2018-09-23T00:08:34.186Z,18.68
2018-09-23T00:09:44.323Z,18.72
2018-09-23T00:10:53.881Z,18.71
2018-09-23T00:12:03.693Z,18.69
2018-09-23T00:13:13.502Z,18.71
2018-09-23T00:14:23.576Z,18.72
2018-09-23T00:15:33.661Z,18.71
2018-09-23T00:16:43.216Z,18.68
2018-09-23T00:17:53.303Z,18.71
2018-09-23T00:19:03.406Z,18.56
2018-09-23T00:20:13.519Z,18.61
2018-09-23T00:21:23.333Z,18.61
2018-09-23T00:22:33.406Z,18.57
2018-09-23T00:23:43.500Z,18.56
2018-09-23T00:24:53.606Z,18.56
2018-09-23T00:26:03.689Z,18.57
2018-09-23T00:27:13.816Z,18.56
2018-09-23T00:28:23.912Z,18.56
2018-09-23T00:29:34.001Z,18.57
2018-09-23T00:30:43.837Z,18.68
2018-09-23T00:31:53.908Z,18.63
2018-09-23T00:33:03.995Z,18.56
2018-09-23T00:34:13.810Z,18.63
2018-09-23T00:35:23.911Z,18.59
2018-09-23T00:36:33.995Z,18.54
2018-09-23T00:37:44.078Z,18.54
2018-09-23T00:38:53.909Z,18.63
2018-09-23T00:40:04.729Z,18.56
2018-09-23T00:41:14.824Z,18.56
2018-09-23T00:42:24.900Z,18.59
2018-09-23T00:43:34.986Z,18.54
2018-09-23T00:44:45.080Z,18.54
2018-09-23T00:45:55.151Z,18.63
2018-09-23T00:47:07.230Z,18.68
2018-09-23T00:48:17.315Z,18.61
2018-09-23T00:49:27.190Z,18.65
2018-09-23T00:50:36.996Z,18.61
2018-09-23T00:51:46.804Z,18.57
2018-09-23T00:52:56.885Z,18.66
2018-09-23T00:54:06.699Z,18.59
2018-09-23T00:55:16.527Z,18.6
2018-09-23T00:56:26.604Z,18.61
2018-09-23T00:57:36.677Z,18.56
2018-09-23T00:58:46.509Z,18.5
2018-09-23T00:59:56.588Z,18.42
2018-09-23T01:01:06.725Z,18.45
2018-09-23T01:02:16.787Z,18.47
2018-09-23T01:03:26.609Z,18.39
2018-09-23T01:04:36.164Z,18.31
2018-09-23T01:05:46.249Z,18.31
2018-09-23T01:06:56.332Z,18.23
2018-09-23T01:08:06.141Z,18.17
2018-09-23T01:09:16.230Z,18.16
2018-09-23T01:10:26.338Z,18.16
2018-09-23T01:11:36.401Z,18.23
2018-09-23T01:12:46.544Z,18.23
2018-09-23T01:13:56.360Z,18.13
2018-09-23T01:15:06.459Z,18.16
2018-09-23T01:16:16.545Z,18.16
2018-09-23T01:17:26.646Z,18.16
2018-09-23T01:18:36.534Z,18.14
2018-09-23T01:19:46.349Z,18.16
2018-09-23T01:20:56.446Z,18.13
2018-09-23T01:22:06.521Z,18.17
2018-09-23T01:23:16.326Z,18.16
2018-09-23T01:24:26.134Z,18.19
2018-09-23T01:25:35.943Z,18.16
2018-09-23T01:26:46.045Z,18.14
2018-09-23T01:27:55.877Z,18.11
2018-09-23T01:29:06.604Z,18.1
2018-09-23T01:30:16.416Z,18.05
2018-09-23T01:31:26.496Z,18.06
2018-09-23T01:32:36.562Z,18.08
2018-09-23T01:33:46.619Z,18.06
2018-09-23T01:34:56.163Z,18.05
2018-09-23T01:36:06.300Z,18.03
2018-09-23T01:37:16.102Z,18.06
2018-09-23T01:38:26.190Z,18.03
2018-09-23T01:39:36.272Z,18.06
2018-09-23T01:40:46.347Z,17.99
2018-09-23T01:41:56.558Z,18.01
2018-09-23T01:43:06.367Z,17.99
2018-09-23T01:44:16.506Z,17.98
2018-09-23T01:45:26.590Z,17.92
2018-09-23T01:46:36.712Z,18.01
2018-09-23T01:47:46.792Z,17.96
2018-09-23T01:48:56.615Z,17.95
2018-09-23T01:50:08.671Z,18.03
2018-09-23T01:51:18.980Z,17.94
2018-09-23T01:52:28.789Z,18.03
2018-09-23T01:53:38.861Z,17.92
2018-09-23T01:54:48.683Z,17.99
2018-09-23T01:55:58.825Z,17.95
2018-09-23T01:57:09.274Z,17.88
2018-09-23T01:58:19.343Z,17.84
2018-09-23T01:59:29.442Z,17.84
2018-09-23T02:00:39.659Z,17.81
2018-09-23T02:01:49.751Z,17.92
2018-09-23T02:02:59.815Z,17.86
2018-09-23T02:04:09.640Z,17.84
2018-09-23T02:05:19.726Z,17.84
2018-09-23T02:06:29.802Z,17.83
2018-09-23T02:07:39.924Z,17.87
2018-09-23T02:08:50.013Z,17.9
2018-09-23T02:10:00.100Z,17.87
2018-09-23T02:11:11.104Z,17.95
2018-09-23T02:12:20.930Z,17.83
2018-09-23T02:13:31.035Z,17.88
2018-09-23T02:14:40.867Z,17.88
2018-09-23T02:15:50.679Z,17.84
2018-09-23T02:17:01.415Z,17.92
2018-09-23T02:18:10.979Z,17.92
2018-09-23T02:19:20.786Z,17.92
2018-09-23T02:20:30.857Z,17.84
2018-09-23T02:21:40.943Z,17.87
2018-09-23T02:22:51.066Z,17.86
2018-09-23T02:24:01.174Z,17.92
2018-09-23T02:25:10.969Z,17.87
2018-09-23T02:26:21.056Z,17.88
2018-09-23T02:27:31.145Z,17.87
2018-09-23T02:28:41.231Z,17.83
2018-09-23T02:29:51.299Z,17.87
2018-09-23T02:31:03.145Z,17.86
2018-09-23T02:32:12.970Z,17.86
2018-09-23T02:33:22.794Z,17.92
2018-09-23T02:34:32.882Z,17.88
2018-09-23T02:35:42.969Z,17.84
2018-09-23T02:36:53.114Z,17.9
2018-09-23T02:38:03.198Z,17.9
2018-09-23T02:39:13.286Z,17.81
2018-09-23T02:40:23.379Z,17.83
2018-09-23T02:41:33.451Z,17.84
2018-09-23T02:42:43.265Z,17.87
2018-09-23T02:43:53.351Z,17.84
2018-09-23T02:45:04.332Z,17.94
2018-09-23T02:46:14.431Z,17.88
2018-09-23T02:47:24.505Z,18.01
2018-09-23T02:48:34.585Z,17.88
2018-09-23T02:49:44.668Z,17.96
2018-09-23T02:50:54.747Z,17.87
2018-09-23T02:52:04.831Z,17.9
2018-09-23T02:53:14.919Z,17.92
2018-09-23T02:54:25.009Z,17.92
2018-09-23T02:55:35.082Z,17.79
2018-09-23T02:56:44.904Z,17.79
2018-09-23T02:57:54.975Z,17.79
2018-09-23T02:59:04.992Z,17.77
2018-09-23T03:00:14.899Z,17.8
2018-09-23T03:01:24.969Z,17.84
2018-09-23T03:02:34.794Z,17.76
2018-09-23T03:34:43.383Z,15.77
2018-09-23T03:35:53.473Z,15.67
2018-09-23T03:37:03.560Z,15.67
2018-09-23T03:38:13.370Z,15.68
2018-09-23T03:39:23.459Z,15.77
2018-09-23T03:40:33.519Z,15.75
2018-09-23T03:41:43.584Z,15.86
2018-09-23T03:42:53.648Z,15.89
2018-09-23T03:44:03.704Z,15.98
2018-09-23T03:45:13.768Z,16.07
2018-09-23T03:46:23.842Z,16.25
2018-09-23T03:47:33.936Z,16.29
2018-09-23T03:48:43.746Z,16.34
2018-09-23T03:49:53.846Z,16.48
2018-09-23T03:51:03.930Z,16.58
2018-09-23T03:52:14.026Z,16.65
2018-09-23T03:53:24.097Z,16.76
2018-09-23T03:54:33.901Z,16.8
2018-09-23T03:55:43.981Z,16.92
2018-09-23T03:56:54.049Z,16.97
2018-09-23T03:58:04.512Z,17.07
2018-09-23T03:59:14.962Z,17.09
2018-09-23T04:00:25.074Z,17.07
2018-09-23T04:01:35.148Z,17.07
2018-09-23T04:02:45.224Z,17.24
2018-09-23T04:03:55.372Z,17.25
2018-09-23T04:05:06.168Z,17.28
2018-09-23T04:06:15.983Z,17.36
2018-09-23T04:07:26.071Z,17.25
2018-09-23T04:08:36.137Z,17.31
2018-09-23T04:09:46.228Z,17.4
2018-09-23T04:10:56.300Z,17.4
2018-09-23T04:12:06.715Z,17.47
2018-09-23T04:13:17.075Z,17.47
2018-09-23T04:14:27.155Z,17.47
2018-09-23T04:15:37.287Z,17.54
2018-09-23T04:16:47.407Z,17.55
2018-09-23T04:17:57.224Z,17.57
2018-09-23T04:19:06.773Z,17.52
2018-09-23T04:20:16.852Z,17.55
2018-09-23T04:21:26.672Z,17.62
2018-09-23T04:22:36.756Z,17.66
2018-09-23T04:23:46.851Z,17.66
2018-09-23T04:24:56.689Z,17.6
2018-09-23T04:26:06.837Z,17.63
2018-09-23T04:27:16.934Z,17.73
2018-09-23T04:28:27.016Z,17.8
2018-09-23T04:29:36.861Z,17.76
2018-09-23T04:30:46.956Z,17.76
2018-09-23T04:31:57.047Z,17.79
2018-09-23T04:33:07.840Z,17.83
2018-09-23T04:34:17.927Z,17.83
2018-09-23T04:35:28.005Z,17.88
2018-09-23T04:36:37.804Z,17.92
2018-09-23T04:37:47.901Z,17.83
2018-09-23T04:38:57.980Z,17.9
2018-09-23T04:40:08.049Z,17.88
2018-09-23T04:41:18.136Z,17.87
2018-09-23T04:42:28.212Z,17.88
2018-09-23T04:43:38.308Z,17.86
2018-09-23T04:44:48.585Z,17.88
2018-09-23T04:45:58.893Z,17.96
2018-09-23T04:47:08.977Z,17.94
2018-09-23T04:48:19.049Z,17.99
2018-09-23T04:49:29.135Z,17.96
2018-09-23T04:50:39.322Z,17.99
2018-09-23T04:51:49.396Z,17.98
2018-09-23T04:52:59.459Z,18.03
2018-09-23T04:54:09.519Z,18.01
2018-09-23T04:55:19.438Z,18.06
2018-09-23T04:56:29.824Z,18.05
2018-09-23T04:57:39.897Z,18.13
2018-09-23T04:58:49.977Z,18.13
2018-09-23T04:59:59.780Z,18.1
2018-09-23T05:01:11.273Z,18.16
2018-09-23T05:02:21.097Z,18.13
2018-09-23T05:03:31.189Z,18.16
2018-09-23T05:04:41.274Z,18.24
2018-09-23T05:05:51.353Z,18.13
2018-09-23T05:07:01.163Z,18.21
2018-09-23T05:08:10.710Z,18.2
2018-09-23T05:09:20.781Z,18.17
2018-09-23T05:10:30.857Z,18.23
2018-09-23T05:11:40.940Z,18.17
2018-09-23T05:12:50.498Z,18.19
2018-09-23T05:14:00.624Z,18.17
2018-09-23T05:15:10.179Z,18.2
2018-09-23T05:16:19.987Z,18.2
2018-09-23T05:17:30.056Z,18.24
2018-09-23T05:18:40.122Z,18.23
2018-09-23T05:19:50.242Z,18.2
2018-09-23T05:21:00.332Z,18.19
2018-09-23T05:22:10.160Z,18.21
2018-09-23T05:23:19.744Z,18.13
2018-09-23T05:24:29.843Z,18.29
2018-09-23T05:25:39.985Z,18.32
2018-09-23T05:26:50.070Z,18.17
2018-09-23T05:28:00.299Z,18.27
2018-09-23T05:29:10.133Z,18.21
2018-09-23T05:30:20.228Z,18.11
2018-09-23T05:31:30.033Z,18.11
2018-09-23T05:32:40.096Z,18.11
2018-09-23T05:33:50.168Z,18.1
2018-09-23T05:35:01.338Z,18.08
2018-09-23T05:36:11.412Z,18.1
2018-09-23T05:37:21.480Z,18.06
2018-09-23T05:38:31.608Z,18.06
2018-09-23T05:39:41.430Z,18.11
2018-09-23T05:40:51.256Z,18.06
2018-09-23T05:42:01.319Z,18.11
2018-09-23T05:43:11.185Z,18.17
2018-09-23T05:44:21.007Z,18.17
2018-09-23T05:45:30.835Z,18.16
2018-09-23T05:46:40.903Z,18.19
2018-09-23T05:47:50.742Z,18.17
2018-09-23T05:49:00.807Z,18.14
2018-09-23T05:50:10.881Z,18.13
2018-09-23T05:51:20.954Z,18.2
2018-09-23T05:52:31.048Z,18.13
2018-09-23T05:53:41.124Z,18.2
2018-09-23T05:54:50.960Z,18.17
2018-09-23T05:56:01.230Z,18.2
2018-09-23T05:57:11.310Z,18.29
2018-09-23T05:58:21.392Z,18.16
2018-09-23T05:59:31.464Z,18.19
2018-09-23T06:00:41.318Z,18.23
2018-09-23T06:01:51.439Z,18.16
2018-09-23T06:03:01.624Z,18.21
2018-09-23T06:04:11.861Z,18.21
2018-09-23T06:05:21.964Z,18.32
2018-09-23T06:06:32.101Z,18.27
2018-09-23T06:07:42.171Z,18.38
2018-09-23T06:08:52.537Z,18.49
2018-09-23T06:10:02.761Z,18.53
2018-09-23T06:11:12.983Z,18.6
2018-09-23T06:12:23.110Z,18.66
2018-09-23T06:13:33.218Z,18.71
2018-09-23T06:14:43.333Z,18.69
2018-09-23T06:15:53.418Z,18.72
2018-09-23T06:17:03.253Z,18.78
2018-09-23T06:18:13.485Z,18.89
2018-09-23T06:19:23.800Z,18.89
2018-09-23T06:20:33.886Z,18.91
2018-09-23T06:21:43.700Z,18.94
2018-09-23T06:22:53.787Z,18.97
2018-09-23T06:24:03.875Z,19
2018-09-23T06:25:13.561Z,19.06
2018-09-23T06:26:23.986Z,19.06
2018-09-23T06:27:34.083Z,19.05
2018-09-23T06:28:44.182Z,19.12
2018-09-23T06:29:54.036Z,19.13
2018-09-23T06:31:03.584Z,19.1
2018-09-23T06:32:13.677Z,19.15
2018-09-23T06:33:23.494Z,19.28
2018-09-23T06:34:33.572Z,19.31
2018-09-23T06:35:43.435Z,19.35
2018-09-23T06:36:53.533Z,19.32
2018-09-23T06:38:03.656Z,19.46
2018-09-23T06:39:13.309Z,19.53
2018-09-23T06:40:22.864Z,19.56
2018-09-23T06:41:33.000Z,19.55
2018-09-23T06:42:43.093Z,19.6
2018-09-23T06:43:53.172Z,19.5
2018-09-23T06:45:03.251Z,19.52
2018-09-23T06:46:13.349Z,19.5
2018-09-23T06:47:23.431Z,19.46
2018-09-23T06:48:33.566Z,19.35
2018-09-23T06:49:43.650Z,19.37
2018-09-23T06:50:53.739Z,19.35
2018-09-23T06:52:03.613Z,19.32
2018-09-23T06:53:13.693Z,19.34
2018-09-23T06:54:23.505Z,19.32
2018-09-23T06:55:33.329Z,19.43
2018-09-23T06:56:43.414Z,19.45
2018-09-23T06:57:53.621Z,19.31
2018-09-23T06:59:03.486Z,19.35
2018-09-23T07:00:13.567Z,19.31
2018-09-23T07:01:23.636Z,19.28
2018-09-23T07:02:33.455Z,19.28
2018-09-23T07:03:43.520Z,19.27
2018-09-23T07:04:53.712Z,19.24
2018-09-23T07:06:03.969Z,19.31
2018-09-23T07:07:14.064Z,19.27
2018-09-23T07:08:24.136Z,19.31
2018-09-23T07:09:33.967Z,19.31
2018-09-23T07:10:44.064Z,19.23
2018-09-23T07:11:53.924Z,19.28
2018-09-23T07:13:03.996Z,19.24
2018-09-23T07:14:14.065Z,19.3
2018-09-23T07:15:23.925Z,19.37
2018-09-23T07:16:34.008Z,19.45
2018-09-23T07:17:44.092Z,19.47
2018-09-23T07:18:54.196Z,19.37
2018-09-23T07:20:04.258Z,19.32
2018-09-23T07:21:14.073Z,19.4
2018-09-23T07:22:23.909Z,19.47
2018-09-23T07:23:33.981Z,19.42
2018-09-23T07:24:43.866Z,19.52
2018-09-23T07:25:54.181Z,19.52
2018-09-23T07:27:04.006Z,19.61
2018-09-23T07:28:14.132Z,19.72
2018-09-23T07:29:24.239Z,19.79
2018-09-23T07:30:34.333Z,19.89
2018-09-23T07:31:44.156Z,19.92
2018-09-23T07:32:54.222Z,19.9
2018-09-23T07:34:03.849Z,19.87
2018-09-23T07:35:13.940Z,19.87
2018-09-23T07:36:24.044Z,19.97
2018-09-23T07:37:34.119Z,20.15
2018-09-23T07:38:44.250Z,20.12
2018-09-23T07:39:54.608Z,20.25
2018-09-23T07:41:04.607Z,20.29
2018-09-23T07:42:14.442Z,20.35
2018-09-23T07:43:24.535Z,20.41
2018-09-23T07:44:34.627Z,20.64
2018-09-23T07:45:44.707Z,20.75
2018-09-23T07:46:54.819Z,20.78
2018-09-23T07:48:05.142Z,20.81
2018-09-23T07:49:15.540Z,20.85
2018-09-23T07:50:25.625Z,20.94
2018-09-23T07:51:35.770Z,21.08
2018-09-23T07:52:45.880Z,21.21
2018-09-23T07:53:55.993Z,21.19
2018-09-23T07:55:06.727Z,21.25
2018-09-23T07:56:16.887Z,21.16
2018-09-23T07:57:26.858Z,21.16
2018-09-23T07:58:36.929Z,21.12
2018-09-23T07:59:46.759Z,21.13
2018-09-23T08:00:56.867Z,21.06
2018-09-23T08:02:07.002Z,20.93
2018-09-23T08:03:17.114Z,20.82
2018-09-23T08:04:27.264Z,20.61
2018-09-23T08:05:36.848Z,20.6
2018-09-23T08:06:46.946Z,20.44
2018-09-23T08:07:57.110Z,20.46
2018-09-23T08:09:07.323Z,20.44
2018-09-23T08:10:17.440Z,20.44
2018-09-23T08:11:27.558Z,20.38
2018-09-23T08:12:38.106Z,20.41
2018-09-23T08:13:50.031Z,20.26
2018-09-23T08:15:02.680Z,20.3
2018-09-23T08:16:13.369Z,20.27
2018-09-23T08:17:23.271Z,20.34
2018-09-23T08:18:33.423Z,20.3
2018-09-23T08:19:44.281Z,20.46
2018-09-23T08:20:54.970Z,20.63
2018-09-23T08:22:05.417Z,20.76
2018-09-23T08:23:15.404Z,20.86
2018-09-23T08:24:25.802Z,20.94
2018-09-23T08:25:36.078Z,21.11
2018-09-23T08:26:46.772Z,21.22
2018-09-23T08:27:56.888Z,21.4
2018-09-23T08:29:07.639Z,21.59
2018-09-23T08:30:17.457Z,21.64
2018-09-23T08:31:27.554Z,21.86
2018-09-23T08:32:37.697Z,21.99
2018-09-23T08:33:47.817Z,22.29
2018-09-23T08:34:57.645Z,22.42
2018-09-23T08:36:07.804Z,22.63
2018-09-23T08:37:18.052Z,22.66
2018-09-23T08:38:28.397Z,22.76
2018-09-23T08:39:38.513Z,22.75
2018-09-23T08:40:48.620Z,22.78
2018-09-23T08:41:58.755Z,23.07
2018-09-23T08:43:08.998Z,23.07
2018-09-23T08:44:19.311Z,23.22
2018-09-23T08:45:29.421Z,23.56
2018-09-23T08:46:39.506Z,23.78
2018-09-23T08:47:49.635Z,23.96
2018-09-23T08:48:59.812Z,24.22
2018-09-23T08:50:09.974Z,24.29
2018-09-23T08:51:19.812Z,24.59
2018-09-23T08:52:29.662Z,24.82
2018-09-23T08:53:39.770Z,24.94
2018-09-23T08:54:49.870Z,25.04
2018-09-23T08:55:59.974Z,25.11
2018-09-23T08:57:10.095Z,25.05
2018-09-23T08:58:20.232Z,25.08
2018-09-23T08:59:30.328Z,25
2018-09-23T09:00:40.154Z,25.19
2018-09-23T09:01:50.236Z,25.15
2018-09-23T09:03:00.356Z,25.34
2018-09-23T09:04:10.202Z,25.41
2018-09-23T09:05:20.048Z,25.54
2018-09-23T09:06:30.166Z,25.63
2018-09-23T09:07:40.315Z,25.71
2018-09-23T09:08:50.412Z,26.07
2018-09-23T09:10:00.000Z,26.27
2018-09-23T09:11:10.093Z,26.23
2018-09-23T09:12:20.196Z,26.11
2018-09-23T09:13:30.335Z,26.03
2018-09-23T09:14:40.438Z,25.94
2018-09-23T09:15:50.511Z,25.91
2018-09-23T09:17:01.952Z,25.96
2018-09-23T09:18:12.216Z,26.17
2018-09-23T09:19:22.614Z,26.19
2018-09-23T09:20:32.708Z,26.22
2018-09-23T09:21:42.525Z,26.24
2018-09-23T09:22:52.362Z,26.19
2018-09-23T09:24:02.452Z,25.96
2018-09-23T09:25:12.584Z,25.89
2018-09-23T09:26:22.672Z,25.74
2018-09-23T09:27:32.775Z,25.56
2018-09-23T09:28:42.906Z,25.85
2018-09-23T09:29:52.989Z,25.76
2018-09-23T09:31:03.129Z,25.62
2018-09-23T09:32:13.245Z,25.6
2018-09-23T09:33:23.326Z,25.67
2018-09-23T09:34:33.177Z,25.71
2018-09-23T09:35:43.264Z,25.69
2018-09-23T09:36:53.363Z,25.76
2018-09-23T09:38:03.458Z,25.7
2018-09-23T09:39:13.572Z,25.85
2018-09-23T09:40:23.394Z,25.78
2018-09-23T09:41:33.247Z,25.62
2018-09-23T09:42:43.469Z,25.66
2018-09-23T09:43:53.609Z,25.6
2018-09-23T09:45:03.951Z,25.63
2018-09-23T09:46:13.496Z,25.48
2018-09-23T09:47:23.341Z,25.51
2018-09-23T09:48:33.179Z,25.45
2018-09-23T09:49:43.266Z,25.29
2018-09-23T09:50:53.363Z,25.19
2018-09-23T09:52:03.464Z,25.29
2018-09-23T09:53:13.562Z,25.24
2018-09-23T09:54:23.659Z,25.37
2018-09-23T09:55:33.964Z,25.52
2018-09-23T09:56:44.055Z,25.64
2018-09-23T09:57:54.144Z,25.97
2018-09-23T09:59:04.244Z,26.34
2018-09-23T10:00:14.321Z,26.71
2018-09-23T10:01:24.403Z,27.12
2018-09-23T10:02:34.485Z,27.38
2018-09-23T10:03:44.483Z,27.3
2018-09-23T10:04:54.813Z,27.13
2018-09-23T10:06:04.975Z,26.91
2018-09-23T10:07:15.080Z,26.97
2018-09-23T10:08:24.907Z,26.89
2018-09-23T10:09:35.010Z,26.96
2018-09-23T10:10:44.572Z,26.91
2018-09-23T10:11:54.402Z,27.08
2018-09-23T10:13:04.493Z,27.24
2018-09-23T10:14:14.060Z,27.37
2018-09-23T10:15:24.163Z,27.36
2018-09-23T10:16:34.290Z,27.42
2018-09-23T10:17:44.393Z,27.49
2018-09-23T10:18:54.478Z,27.59
2018-09-23T10:20:04.581Z,27.66
2018-09-23T10:21:14.677Z,27.75
2018-09-23T10:22:24.580Z,27.53
2018-09-23T10:23:35.581Z,27.33
2018-09-23T10:24:46.451Z,27.11
2018-09-23T10:25:56.547Z,27
2018-09-23T10:27:06.650Z,27
2018-09-23T10:28:16.740Z,26.99
2018-09-23T10:29:26.840Z,26.87
2018-09-23T10:30:36.397Z,26.78
2018-09-23T10:31:46.771Z,26.53
2018-09-23T10:32:57.122Z,26.41
2018-09-23T10:34:07.206Z,26.42
2018-09-23T10:35:16.786Z,26.49
2018-09-23T10:36:26.617Z,26.57
2018-09-23T10:37:36.716Z,26.81
2018-09-23T10:38:46.801Z,26.96
2018-09-23T10:39:56.664Z,26.96
2018-09-23T10:41:06.474Z,26.99
2018-09-23T10:42:16.625Z,27.04
2018-09-23T10:43:26.468Z,27.15
2018-09-23T10:44:36.568Z,27.26
2018-09-23T10:45:46.650Z,27.19
2018-09-23T10:46:56.731Z,27.05
2018-09-23T10:48:06.855Z,26.96
2018-09-23T10:49:16.968Z,26.93
2018-09-23T10:50:27.079Z,26.76
2018-09-23T10:51:37.186Z,26.59
2018-09-23T10:52:47.341Z,26.44
2018-09-23T10:53:57.190Z,26.49
2018-09-23T10:55:07.296Z,26.35
2018-09-23T10:56:17.405Z,26.34
2018-09-23T10:57:27.233Z,26.32
2018-09-23T10:58:37.053Z,26.38
2018-09-23T10:59:47.147Z,26.41
2018-09-23T11:00:56.991Z,26.39
2018-09-23T11:02:07.081Z,26.45
2018-09-23T11:03:17.193Z,26.34
2018-09-23T11:04:27.369Z,26.09
2018-09-23T11:05:37.211Z,25.84
2018-09-23T11:06:46.785Z,25.56
2018-09-23T11:07:56.381Z,25.26
2018-09-23T11:09:06.491Z,25.02
2018-09-23T11:10:16.056Z,24.92
2018-09-23T11:11:25.885Z,24.74
2018-09-23T11:12:36.019Z,24.71
2018-09-23T11:13:46.131Z,24.66
2018-09-23T11:14:55.970Z,24.64
2018-09-23T11:16:06.376Z,24.77
2018-09-23T11:17:16.506Z,24.8
2018-09-23T11:18:26.340Z,24.83
2018-09-23T11:19:36.188Z,24.77
2018-09-23T11:20:46.294Z,24.66
2018-09-23T11:21:56.429Z,24.55
2018-09-23T11:23:06.590Z,24.45
2018-09-23T11:24:16.759Z,24.17
2018-09-23T11:25:26.844Z,24.14
2018-09-23T11:26:36.934Z,24
2018-09-23T11:27:47.050Z,24.17
2018-09-23T11:28:57.141Z,24.14
2018-09-23T11:30:07.698Z,24.18
2018-09-23T11:31:17.814Z,24.17
2018-09-23T11:32:27.702Z,24.09
2018-09-23T11:33:37.916Z,23.97
2018-09-23T11:34:48.017Z,23.84
2018-09-23T11:35:58.112Z,23.79
2018-09-23T11:37:07.924Z,23.78
2018-09-23T11:38:18.020Z,23.71
2018-09-23T11:39:28.146Z,23.74
2018-09-23T11:40:38.228Z,23.67
2018-09-23T11:41:48.317Z,23.72
2018-09-23T11:42:58.695Z,23.78
2018-09-23T11:44:08.597Z,23.81
2018-09-23T11:45:18.696Z,23.66
2018-09-23T11:46:28.785Z,23.47
2018-09-23T11:47:38.882Z,23.24
2018-09-23T11:48:49.039Z,23.16
2018-09-23T11:49:59.142Z,23.07
2018-09-23T11:51:11.114Z,23.01
2018-09-23T11:52:21.193Z,22.94
2018-09-23T11:53:30.494Z,23.01
2018-09-23T11:54:40.630Z,22.91
2018-09-23T11:55:50.708Z,22.75
2018-09-23T11:57:00.793Z,22.55
2018-09-23T11:58:10.903Z,22.29
2018-09-23T11:59:20.718Z,22
2018-09-23T12:00:30.876Z,21.68
2018-09-23T12:01:40.585Z,21.64
2018-09-23T12:02:50.683Z,21.51
2018-09-23T12:04:01.242Z,21.37
2018-09-23T12:05:11.354Z,21.21
2018-09-23T12:06:21.490Z,21.04
2018-09-23T12:07:31.581Z,20.86
2018-09-23T12:08:41.699Z,20.78
2018-09-23T12:09:51.810Z,20.71
2018-09-23T12:11:02.024Z,20.71
2018-09-23T12:12:12.285Z,20.71
2018-09-23T12:13:22.427Z,20.71
2018-09-23T12:14:32.531Z,20.67
2018-09-23T12:15:42.935Z,20.75
2018-09-23T12:16:53.196Z,20.79
2018-09-23T12:18:05.264Z,20.94
2018-09-23T12:19:15.404Z,20.96
2018-09-23T12:20:25.506Z,21.09
2018-09-23T12:21:35.600Z,21.04
2018-09-23T12:22:45.440Z,21.06
2018-09-23T12:23:55.265Z,21.06
2018-09-23T12:25:05.148Z,21.22
2018-09-23T12:26:14.993Z,21.27
2018-09-23T12:27:24.830Z,21.43
2018-09-23T12:28:34.689Z,21.4
2018-09-23T12:29:45.026Z,21.4
2018-09-23T12:30:55.151Z,21.37
2018-09-23T12:32:05.302Z,21.38
2018-09-23T12:33:15.550Z,21.37
2018-09-23T12:34:25.929Z,21.37
2018-09-23T12:35:36.070Z,21.41
2018-09-23T12:36:46.183Z,21.36
2018-09-23T12:37:56.277Z,21.21
2018-09-23T12:39:06.573Z,21.18
2018-09-23T12:40:16.657Z,20.96
2018-09-23T12:41:26.824Z,20.93
2018-09-23T12:42:36.928Z,20.85
2018-09-23T12:43:47.036Z,20.81
2018-09-23T12:44:57.119Z,20.81
2018-09-23T12:46:07.463Z,20.78
2018-09-23T12:47:18.011Z,20.93
2018-09-23T12:48:28.131Z,21.09
2018-09-23T12:49:38.217Z,21.34
2018-09-23T12:50:48.115Z,21.55
2018-09-23T12:51:57.938Z,21.55
2018-09-23T12:53:08.138Z,21.58
2018-09-23T12:54:18.233Z,21.85
2018-09-23T12:55:28.327Z,22.2
2018-09-23T12:56:38.410Z,22.41
2018-09-23T12:57:48.508Z,22.75
2018-09-23T12:58:58.648Z,23.12
2018-09-23T13:00:10.522Z,23.28
2018-09-23T13:01:20.605Z,23.56
2018-09-23T13:02:30.826Z,23.67
2018-09-23T13:03:41.210Z,23.64
2018-09-23T13:04:51.317Z,23.55
2018-09-23T13:06:02.295Z,23.38
2018-09-23T13:07:12.495Z,23.25
2018-09-23T13:08:22.572Z,23.4
2018-09-23T13:09:32.687Z,23.25
2018-09-23T13:10:42.780Z,23.26
2018-09-23T13:11:52.875Z,23.18
2018-09-23T13:13:05.624Z,23.07
2018-09-23T13:14:15.739Z,22.89
2018-09-23T13:15:25.590Z,22.79
2018-09-23T13:16:35.693Z,22.7
2018-09-23T13:17:45.800Z,22.81
2018-09-23T13:18:56.071Z,22.84
2018-09-23T13:20:06.171Z,22.75
2018-09-23T13:21:16.253Z,22.59
2018-09-23T13:22:26.366Z,22.45
2018-09-23T13:23:36.462Z,22.39
2018-09-23T13:24:46.646Z,22.3
2018-09-23T13:25:56.779Z,22.12
2018-09-23T13:27:06.864Z,21.99
2018-09-23T13:28:16.967Z,21.85
2018-09-23T13:29:26.817Z,21.71
2018-09-23T13:30:36.682Z,21.62
2018-09-23T13:31:46.802Z,21.59
2018-09-23T13:32:56.884Z,21.53
2018-09-23T13:34:06.998Z,21.59
2018-09-23T13:35:16.559Z,21.61
2018-09-23T13:36:26.700Z,21.7
2018-09-23T13:37:36.525Z,21.7
2018-09-23T13:38:46.626Z,21.73
2018-09-23T13:39:56.742Z,21.86
2018-09-23T13:41:06.958Z,22.15
2018-09-23T13:42:17.150Z,22.29
2018-09-23T13:43:27.286Z,22.51
2018-09-23T13:44:37.423Z,22.67
2018-09-23T13:45:47.525Z,22.85
2018-09-23T13:46:57.619Z,23.06
2018-09-23T13:48:07.717Z,23.19
2018-09-23T13:49:17.273Z,23.26
2018-09-23T13:50:27.357Z,23.59
2018-09-23T13:51:37.190Z,23.53
2018-09-23T13:52:47.304Z,23.41
2018-09-23T13:53:57.427Z,23.38
2018-09-23T13:55:07.536Z,23.26
2018-09-23T13:56:17.635Z,23.15
2018-09-23T13:57:27.739Z,23.01
2018-09-23T13:58:37.848Z,22.91
2018-09-23T13:59:47.979Z,22.91
2018-09-23T14:00:58.103Z,22.86
2018-09-23T14:02:08.196Z,22.79
2018-09-23T14:03:18.285Z,22.78
2018-09-23T14:04:28.458Z,22.75
2018-09-23T14:05:38.649Z,22.64
2018-09-23T14:06:48.739Z,22.55
2018-09-23T14:07:58.592Z,22.49
2018-09-23T14:09:08.712Z,22.6
2018-09-23T14:10:18.855Z,22.66
2018-09-23T14:11:29.060Z,22.69
2018-09-23T14:12:39.195Z,22.69
2018-09-23T14:13:49.304Z,22.67
2018-09-23T14:14:59.121Z,22.64
2018-09-23T14:16:08.970Z,22.71
2018-09-23T14:17:19.075Z,22.54
2018-09-23T14:18:29.170Z,22.57
2018-09-23T14:19:38.994Z,22.45
2018-09-23T14:20:49.085Z,22.39
2018-09-23T14:21:59.176Z,22.44
2018-09-23T14:23:09.105Z,22.39
2018-09-23T14:24:19.240Z,22.51
2018-09-23T14:25:29.335Z,22.46
2018-09-23T14:26:39.450Z,22.54
2018-09-23T14:27:49.312Z,22.6
2018-09-23T14:28:59.462Z,22.61
2018-09-23T14:30:09.557Z,22.71
2018-09-23T14:31:19.661Z,22.73
2018-09-23T14:32:29.767Z,22.78
2018-09-23T14:33:39.905Z,22.82
2018-09-23T14:34:50.107Z,22.81
2018-09-23T14:36:01.307Z,22.88
2018-09-23T14:37:11.460Z,22.79
2018-09-23T14:38:21.302Z,22.88
2018-09-23T14:39:31.404Z,22.97
2018-09-23T14:40:41.284Z,23.34
2018-09-23T14:41:51.433Z,23.64
2018-09-23T14:43:01.590Z,23.97
2018-09-23T14:44:11.685Z,24.11
2018-09-23T14:45:21.801Z,24.04
2018-09-23T14:46:31.985Z,23.9
2018-09-23T14:47:42.101Z,23.82
2018-09-23T14:48:52.320Z,23.56
2018-09-23T14:50:03.367Z,23.44
2018-09-23T14:51:13.464Z,23.29
2018-09-23T14:52:23.577Z,23.15
2018-09-23T14:53:33.693Z,23.12
2018-09-23T14:54:44.618Z,23.03
2018-09-23T14:55:54.937Z,23.09
2018-09-23T14:57:04.788Z,23.04
2018-09-23T14:58:14.605Z,22.91
2018-09-23T14:59:24.457Z,22.91
2018-09-23T15:00:34.657Z,22.97
2018-09-23T15:01:44.688Z,22.92
2018-09-23T15:02:54.765Z,22.79
2018-09-23T15:04:04.098Z,22.99
2018-09-23T15:05:13.958Z,23.12
2018-09-23T15:06:24.293Z,23.44
2018-09-23T15:07:34.553Z,23.6
2018-09-23T15:08:44.639Z,23.82
2018-09-23T15:09:54.849Z,23.9
2018-09-23T15:11:04.964Z,23.84
2018-09-23T15:12:15.067Z,23.87
2018-09-23T15:13:25.167Z,23.93
2018-09-23T15:14:35.019Z,24.02
2018-09-23T15:15:45.133Z,24.08
2018-09-23T15:16:55.231Z,23.96
2018-09-23T15:18:05.357Z,23.78
2018-09-23T15:19:14.937Z,23.75
2018-09-23T15:20:25.080Z,23.85
2018-09-23T15:21:35.269Z,23.85
2018-09-23T15:22:45.446Z,23.85
2018-09-23T15:23:55.534Z,23.78
2018-09-23T15:25:05.380Z,23.7
2018-09-23T15:26:15.526Z,23.63
2018-09-23T15:27:25.760Z,23.64
2018-09-23T15:28:35.914Z,23.6
2018-09-23T15:29:45.494Z,23.57
2018-09-23T15:30:55.618Z,23.59
2018-09-23T15:32:05.870Z,23.48
2018-09-23T15:33:16.243Z,23.52
2018-09-23T15:34:26.398Z,23.35
2018-09-23T15:35:36.532Z,23.15
2018-09-23T15:36:46.715Z,23.07